createdAt,value
2018-01-26T10:49:36.681Z,16.10
2018-01-26T10:52:04.863Z,16.10
2018-01-26T10:54:32.008Z,16.20
2018-01-26T10:56:59.150Z,16.30
2018-01-26T10:59:26.289Z,16.50
2018-01-26T11:01:53.416Z,16.60
2018-01-26T11:04:21.324Z,16.60
2018-01-26T11:06:48.471Z,16.60
2018-01-26T11:09:15.616Z,16.60
2018-01-26T11:11:42.879Z,16.60
2018-01-26T11:14:10.015Z,16.60
2018-01-26T11:16:37.153Z,16.60
2018-01-26T11:19:04.284Z,16.70
2018-01-26T11:21:32.228Z,16.90
2018-01-26T11:23:59.369Z,16.90
2018-01-26T11:26:27.325Z,16.90
2018-01-26T11:28:54.461Z,16.90
2018-01-26T11:31:21.600Z,16.90
2018-01-26T11:33:48.772Z,16.80
2018-01-26T11:36:15.900Z,16.80
2018-01-26T11:38:43.119Z,16.80
2018-01-26T11:41:10.509Z,16.80
2018-01-26T11:43:37.641Z,16.80
2018-01-26T11:46:05.547Z,16.70
2018-01-26T11:48:32.680Z,16.70
2018-01-26T11:50:59.859Z,16.70
2018-01-26T11:53:27.016Z,16.70
2018-01-26T11:55:54.197Z,16.70
2018-01-26T11:58:21.331Z,16.70
2018-01-26T12:00:48.505Z,16.70
2018-01-26T12:03:15.650Z,16.70
2018-01-26T12:05:42.817Z,16.60
2018-01-26T12:08:10.722Z,16.60
2018-01-26T12:10:37.889Z,16.60
2018-01-26T12:13:05.789Z,16.60
2018-01-26T12:15:33.054Z,16.60
2018-01-26T12:18:00.977Z,16.60
2018-01-26T12:20:28.115Z,16.70
2018-01-26T12:22:55.257Z,16.70
2018-01-26T12:25:22.388Z,16.70
2018-01-26T12:27:50.292Z,16.60
2018-01-26T12:30:17.435Z,16.60
2018-01-26T12:32:44.614Z,16.60
2018-01-26T12:35:11.753Z,16.60
2018-01-26T12:37:38.925Z,16.60
2018-01-26T12:40:06.102Z,16.70
2018-01-26T12:42:34.136Z,16.70
2018-01-26T12:45:01.276Z,16.60
2018-01-26T12:47:28.405Z,16.60
2018-01-26T12:49:55.586Z,16.70
2018-01-26T12:52:22.709Z,16.70
2018-01-26T12:54:49.917Z,16.70
2018-01-26T12:57:17.057Z,16.60
2018-01-26T12:59:44.229Z,16.60
2018-01-26T13:02:12.132Z,16.70
2018-01-26T13:04:39.357Z,16.70
2018-01-26T13:07:06.529Z,16.80
2018-01-26T13:09:33.664Z,16.90
2018-01-26T13:12:01.565Z,17.00
2018-01-26T13:14:28.702Z,16.90
2018-01-26T13:16:55.840Z,16.90
2018-01-26T13:19:23.033Z,17.00
2018-01-26T13:21:50.165Z,16.90
2018-01-26T13:24:17.302Z,16.90
2018-01-26T13:26:44.477Z,16.90
2018-01-26T13:29:11.619Z,16.90
2018-01-26T13:31:38.763Z,16.90
2018-01-26T13:34:05.936Z,16.90
2018-01-26T13:36:33.078Z,16.80
2018-01-26T13:39:00.233Z,16.80
2018-01-26T13:41:27.372Z,16.80
2018-01-26T13:43:54.549Z,16.80
2018-01-26T13:46:21.857Z,16.90
2018-01-26T13:48:49.123Z,16.80
2018-01-26T13:51:16.464Z,16.80
2018-01-26T13:53:43.871Z,16.80
2018-01-26T13:56:11.254Z,16.80
2018-01-26T13:58:39.725Z,16.80
2018-01-26T14:01:08.187Z,16.80
2018-01-26T14:03:38.349Z,16.80
2018-01-26T14:09:13.560Z,16.80
2018-01-26T14:11:46.478Z,16.70
2018-01-26T14:14:24.173Z,16.70
2018-01-26T14:16:51.309Z,16.70
2018-01-26T14:19:18.452Z,16.40
2018-01-26T14:21:45.621Z,16.50
2018-01-26T14:24:12.761Z,16.50
2018-01-26T14:26:39.898Z,16.60
2018-01-26T14:29:07.077Z,16.60
2018-01-26T14:31:34.213Z,16.60
2018-01-26T14:34:01.385Z,16.70
2018-01-26T14:36:28.517Z,16.70
2018-01-26T14:38:55.659Z,16.90
2018-01-26T14:41:22.797Z,17.00
2018-01-26T14:43:49.972Z,17.00
2018-01-26T14:46:17.118Z,17.00
2018-01-26T14:48:44.288Z,17.00
2018-01-26T14:51:11.420Z,17.00
2018-01-26T14:53:38.558Z,17.00
2018-01-26T14:56:05.688Z,16.90
2018-01-26T14:58:32.820Z,17.00
2018-01-26T15:01:00.722Z,16.90
2018-01-26T15:03:27.865Z,16.90
2018-01-26T15:05:55.038Z,16.90
2018-01-26T15:08:22.168Z,16.90
2018-01-26T15:10:49.336Z,16.80
2018-01-26T15:13:17.257Z,16.80
2018-01-26T15:15:45.159Z,16.80
2018-01-26T15:18:12.328Z,16.80
2018-01-26T15:20:39.463Z,16.80
2018-01-26T15:23:06.605Z,16.80
2018-01-26T15:25:33.776Z,16.80
2018-01-26T15:28:00.913Z,16.80
2018-01-26T15:30:28.053Z,16.80
2018-01-26T15:32:55.272Z,16.70
2018-01-26T15:35:22.404Z,16.70
2018-01-26T15:37:49.537Z,16.80
2018-01-26T15:40:16.668Z,16.80
2018-01-26T15:42:43.804Z,16.80
2018-01-26T15:45:11.745Z,16.80
2018-01-26T15:47:38.897Z,16.80
2018-01-26T15:50:06.072Z,16.70
2018-01-26T15:52:34.010Z,16.70
2018-01-26T15:55:01.184Z,16.70
2018-01-26T15:57:29.081Z,16.80
2018-01-26T15:59:56.423Z,16.80
2018-01-26T16:02:23.557Z,16.80
2018-01-26T16:04:51.462Z,16.70
2018-01-26T16:07:18.636Z,16.70
2018-01-26T16:09:45.808Z,16.70
2018-01-26T16:12:12.942Z,16.60
2018-01-26T16:14:40.112Z,16.70
2018-01-26T16:17:07.284Z,16.70
2018-01-26T16:19:35.705Z,16.70
2018-01-26T16:22:02.850Z,16.70
2018-01-26T16:24:30.020Z,16.70
2018-01-26T16:26:57.152Z,16.60
2018-01-26T16:29:24.324Z,16.60
2018-01-26T16:31:51.458Z,16.60
2018-01-26T16:34:18.637Z,16.60
2018-01-26T16:36:46.574Z,16.60
2018-01-26T16:39:13.748Z,16.70
2018-01-26T16:41:41.057Z,16.90
2018-01-26T16:44:08.953Z,17.00
2018-01-26T16:46:36.096Z,17.00
2018-01-26T16:49:03.268Z,17.00
2018-01-26T16:51:30.404Z,17.00
2018-01-26T16:53:57.583Z,17.00
2018-01-26T16:56:24.714Z,16.90
2018-01-26T16:58:51.881Z,16.90
2018-01-26T17:01:19.017Z,17.00
2018-01-26T17:03:46.342Z,16.90
2018-01-26T17:06:13.484Z,16.90
2018-01-26T17:08:41.384Z,16.90
2018-01-26T17:11:08.556Z,16.90
2018-01-26T17:13:35.693Z,16.90
2018-01-26T17:16:02.909Z,16.80
2018-01-26T17:18:30.048Z,16.80
2018-01-26T17:20:57.949Z,16.80
2018-01-26T17:23:25.123Z,16.80
2018-01-26T17:25:52.332Z,16.80
2018-01-26T17:28:19.484Z,16.90
2018-01-26T17:30:46.737Z,16.80
2018-01-26T17:33:13.928Z,16.80
2018-01-26T17:35:41.084Z,16.70
2018-01-26T17:38:08.214Z,16.60
2018-01-26T17:40:35.441Z,16.50
2018-01-26T17:43:02.577Z,16.50
2018-01-26T17:45:30.476Z,16.50
2018-01-26T17:47:57.804Z,16.50
2018-01-26T17:50:25.709Z,16.40
2018-01-26T17:52:52.844Z,16.40
2018-01-26T17:55:19.983Z,16.40
2018-01-26T17:57:47.112Z,16.40
2018-01-26T18:00:14.249Z,16.50
2018-01-26T18:02:41.380Z,16.60
2018-01-26T18:05:08.512Z,16.70
2018-01-26T18:07:35.656Z,16.70
2018-01-26T18:10:02.900Z,16.80
2018-01-26T18:12:30.040Z,16.70
2018-01-26T18:14:57.169Z,16.60
2018-01-26T18:17:25.073Z,16.60
2018-01-26T18:19:52.209Z,16.60
2018-01-26T18:22:19.348Z,16.70
2018-01-26T18:24:47.245Z,16.80
2018-01-26T18:27:14.380Z,16.80
2018-01-26T18:29:41.512Z,16.80
2018-01-26T18:32:09.412Z,16.70
2018-01-26T18:34:36.553Z,16.70
2018-01-26T18:37:03.696Z,16.80
2018-01-26T18:39:30.824Z,16.80
2018-01-26T18:41:57.960Z,16.80
2018-01-26T18:44:25.100Z,16.80
2018-01-26T18:46:52.236Z,16.80
2018-01-26T18:49:19.385Z,16.70
2018-01-26T18:51:46.522Z,16.70
2018-01-26T18:54:13.727Z,16.70
2018-01-26T18:56:40.868Z,16.70
2018-01-26T18:59:08.005Z,16.70
2018-01-26T19:01:35.182Z,16.70
2018-01-26T19:04:03.095Z,16.60
2018-01-26T19:06:30.270Z,16.60
2018-01-26T19:08:57.408Z,16.60
2018-01-26T19:11:24.565Z,16.70
2018-01-26T19:13:51.703Z,16.60
2018-01-26T19:16:18.908Z,16.70
2018-01-26T19:18:46.855Z,16.60
2018-01-26T19:21:13.998Z,16.60
2018-01-26T19:23:41.133Z,16.60
2018-01-26T19:26:08.265Z,16.50
2018-01-26T19:28:35.405Z,16.60
2018-01-26T19:31:02.589Z,16.60
2018-01-26T19:33:29.742Z,16.70
2018-01-26T19:35:56.916Z,16.60
2018-01-26T19:38:24.053Z,16.70
2018-01-26T19:40:51.989Z,16.60
2018-01-26T19:43:19.137Z,16.50
2018-01-26T19:45:46.268Z,16.60
2018-01-26T19:48:14.168Z,16.70
2018-01-26T19:50:41.447Z,16.70
2018-01-26T19:53:10.535Z,16.80
2018-01-26T19:55:37.677Z,16.90
2018-01-26T19:58:04.848Z,16.90
2018-01-26T20:00:31.982Z,16.90
2018-01-26T20:03:04.972Z,16.90
2018-01-26T20:05:54.785Z,16.90
2018-01-26T20:08:28.346Z,16.90
2018-01-26T20:10:55.476Z,16.90
2018-01-26T20:13:27.857Z,16.80
2018-01-26T20:15:55.038Z,16.90
2018-01-26T20:18:22.179Z,16.90
2018-01-26T20:20:49.321Z,16.80
2018-01-26T20:23:16.453Z,16.90
2018-01-26T20:25:43.581Z,16.80
2018-01-26T20:28:11.512Z,16.80
2018-01-26T20:30:38.689Z,16.80
2018-01-26T20:33:05.830Z,16.80
2018-01-26T20:35:32.974Z,16.80
2018-01-26T20:38:00.117Z,16.80
2018-01-26T20:40:27.502Z,16.90
2018-01-26T20:42:55.461Z,16.80
2018-01-26T20:45:23.472Z,16.80
2018-01-26T20:47:50.664Z,16.80
2018-01-26T20:50:17.901Z,16.80
2018-01-26T20:52:45.162Z,16.80
2018-01-26T20:55:12.298Z,16.80
2018-01-26T20:57:39.437Z,16.80
2018-01-26T21:00:06.605Z,16.70
2018-01-26T21:02:33.777Z,16.70
2018-01-26T21:05:00.964Z,16.70
2018-01-26T21:07:28.867Z,16.70
2018-01-26T21:09:56.042Z,16.70
2018-01-26T21:12:23.979Z,16.60
2018-01-26T21:14:51.122Z,16.60
2018-01-26T21:17:18.305Z,16.60
2018-01-26T21:19:45.450Z,16.70
2018-01-26T21:22:12.584Z,16.80
2018-01-26T21:24:39.744Z,16.90
2018-01-26T21:27:06.877Z,17.00
2018-01-26T21:29:34.013Z,17.00
2018-01-26T21:32:01.918Z,16.90
2018-01-26T21:34:29.053Z,16.90
2018-01-26T21:36:56.190Z,16.90
2018-01-26T21:39:24.087Z,16.90
2018-01-26T21:41:51.231Z,16.90
2018-01-26T21:44:18.368Z,16.90
2018-01-26T21:46:45.502Z,16.90
2018-01-26T21:49:13.415Z,16.90
2018-01-26T21:51:40.603Z,16.80
2018-01-26T21:54:07.734Z,16.80
2018-01-26T21:56:34.871Z,16.80
2018-01-26T21:59:02.010Z,16.80
2018-01-26T22:01:29.145Z,16.80
2018-01-26T22:03:56.285Z,16.70
2018-01-26T22:06:29.476Z,16.80
2018-01-26T22:08:57.381Z,16.80
2018-01-26T22:11:24.527Z,16.80
2018-01-26T22:13:51.667Z,16.80
2018-01-26T22:16:18.809Z,16.80
2018-01-26T22:18:45.944Z,16.80
2018-01-26T22:21:13.848Z,16.70
2018-01-26T22:23:40.980Z,16.70
2018-01-26T22:26:08.121Z,16.70
2018-01-26T22:28:35.295Z,16.70
2018-01-26T22:31:02.433Z,16.70
2018-01-26T22:33:29.613Z,16.80
2018-01-26T22:35:56.758Z,16.70
2018-01-26T22:38:23.929Z,16.70
2018-01-26T22:40:51.068Z,16.70
2018-01-26T22:43:18.978Z,16.60
2018-01-26T22:45:46.882Z,16.70
2018-01-26T22:48:14.220Z,16.70
2018-01-26T22:50:41.353Z,16.70
2018-01-26T22:53:09.258Z,16.70
2018-01-26T22:55:36.397Z,16.70
2018-01-26T22:58:03.573Z,16.70
2018-01-26T23:00:30.717Z,16.70
2018-01-26T23:02:58.645Z,16.60
2018-01-26T23:05:26.555Z,16.70
2018-01-26T23:07:53.693Z,16.70
2018-01-26T23:10:20.843Z,16.70
2018-01-26T23:12:48.061Z,16.70
2018-01-26T23:15:15.965Z,16.70
2018-01-26T23:17:43.136Z,16.70
2018-01-26T23:20:10.281Z,16.60
2018-01-26T23:22:37.453Z,16.60
2018-01-26T23:25:04.592Z,16.60
2018-01-26T23:27:31.732Z,16.70
2018-01-26T23:29:58.910Z,16.80
2018-01-26T23:32:26.049Z,16.90
2018-01-26T23:34:53.188Z,16.90
2018-01-26T23:37:20.331Z,16.90
2018-01-26T23:39:47.472Z,16.90
2018-01-26T23:42:14.611Z,16.80
2018-01-26T23:44:41.755Z,16.90
2018-01-26T23:47:09.660Z,16.90
2018-01-26T23:49:36.805Z,16.90
2018-01-26T23:52:03.953Z,16.80
2018-01-26T23:54:31.100Z,16.80
2018-01-26T23:56:58.274Z,16.80
2018-01-26T23:59:25.413Z,16.80
